createdAt,value
2017-06-18T00:00:04.944Z,24.1
2017-06-18T00:02:04.643Z,24
2017-06-18T00:04:05.421Z,24
2017-06-18T00:06:05.101Z,24
2017-06-18T00:08:04.721Z,24
2017-06-18T00:10:08.148Z,24
2017-06-18T00:12:04.882Z,24.1
2017-06-18T00:14:17.369Z,24
2017-06-18T00:16:04.656Z,24
2017-06-18T00:18:05.590Z,24
2017-06-18T00:20:05.300Z,24
2017-06-18T00:22:07.506Z,24
2017-06-18T00:24:10.252Z,24
2017-06-18T00:26:05.328Z,24
2017-06-18T00:28:05.064Z,24
2017-06-18T00:30:04.859Z,24
2017-06-18T00:32:05.546Z,24
2017-06-18T00:34:04.858Z,24
2017-06-18T00:36:05.535Z,24
2017-06-18T00:38:05.393Z,24
2017-06-18T00:40:07.855Z,24
2017-06-18T00:42:05.940Z,24
2017-06-18T00:44:04.610Z,24
2017-06-18T00:46:04.936Z,24
2017-06-18T00:48:07.682Z,24
2017-06-18T00:50:15.497Z,24
2017-06-18T00:52:05.307Z,24
2017-06-18T00:54:04.971Z,24
2017-06-18T00:56:04.717Z,24
2017-06-18T00:58:08.142Z,24
2017-06-18T01:00:04.816Z,24
2017-06-18T01:02:05.017Z,24
2017-06-18T01:04:04.723Z,24
2017-06-18T01:06:05.625Z,24
2017-06-18T01:08:04.902Z,24
2017-06-18T01:10:07.741Z,24
2017-06-18T01:12:05.460Z,24
2017-06-18T01:14:05.166Z,24
2017-06-18T01:16:04.872Z,24
2017-06-18T01:18:04.862Z,24
2017-06-18T01:20:04.684Z,24
2017-06-18T01:22:05.064Z,24
2017-06-18T01:24:04.776Z,24
2017-06-18T01:26:05.033Z,24
2017-06-18T01:28:07.434Z,24
2017-06-18T01:30:05.110Z,24
2017-06-18T01:32:04.744Z,24
2017-06-18T01:34:05.466Z,24
2017-06-18T01:36:04.681Z,24
2017-06-18T01:38:05.369Z,24
2017-06-18T01:40:05.209Z,24
2017-06-18T01:42:10.136Z,24
2017-06-18T01:44:04.966Z,24
2017-06-18T01:46:07.394Z,24
2017-06-18T01:48:05.111Z,24
2017-06-18T01:50:10.441Z,24
2017-06-18T01:52:05.261Z,24
2017-06-18T01:54:05.065Z,24
2017-06-18T01:56:04.791Z,24
2017-06-18T01:58:08.215Z,24
2017-06-18T02:00:05.421Z,24
2017-06-18T02:02:07.806Z,24
2017-06-18T02:04:05.800Z,24
2017-06-18T02:06:05.680Z,24
2017-06-18T02:08:07.990Z,24
2017-06-18T02:10:04.921Z,24
2017-06-18T02:12:04.623Z,24
2017-06-18T02:14:05.304Z,24
2017-06-18T02:16:12.728Z,24
2017-06-18T02:18:05.854Z,24
2017-06-18T02:20:08.128Z,24
2017-06-18T02:22:07.430Z,24
2017-06-18T02:24:04.652Z,24
2017-06-18T02:26:05.414Z,24
2017-06-18T02:28:04.740Z,24
2017-06-18T02:30:05.523Z,24
2017-06-18T02:32:05.262Z,24
2017-06-18T02:34:05.064Z,24
2017-06-18T02:36:04.869Z,24
2017-06-18T02:38:18.227Z,24
2017-06-18T02:40:05.099Z,24
2017-06-18T02:42:04.763Z,24
2017-06-18T02:44:05.417Z,24
2017-06-18T02:46:05.310Z,24
2017-06-18T02:48:07.549Z,24
2017-06-18T02:50:07.463Z,24
2017-06-18T02:52:05.414Z,24
2017-06-18T02:54:05.153Z,24
2017-06-18T02:56:04.840Z,24
2017-06-18T02:58:05.685Z,24
2017-06-18T03:00:05.426Z,24
2017-06-18T03:02:04.624Z,24
2017-06-18T03:04:05.685Z,24
2017-06-18T03:06:05.440Z,24
2017-06-18T03:08:07.661Z,24
2017-06-18T03:10:05.525Z,24
2017-06-18T03:12:05.303Z,24
2017-06-18T03:14:10.114Z,24
2017-06-18T03:16:08.016Z,24
2017-06-18T03:18:05.435Z,24
2017-06-18T03:20:04.620Z,24
2017-06-18T03:22:05.370Z,24
2017-06-18T03:24:05.101Z,24
2017-06-18T03:26:04.809Z,24
2017-06-18T03:28:05.371Z,24
2017-06-18T03:30:07.601Z,24
2017-06-18T03:32:05.338Z,23.9
2017-06-18T03:34:05.083Z,24
2017-06-18T03:36:04.785Z,23.9
2017-06-18T03:38:10.899Z,24
2017-06-18T03:40:08.295Z,24
2017-06-18T03:42:05.051Z,24
2017-06-18T03:44:04.728Z,24
2017-06-18T03:46:07.976Z,24
2017-06-18T03:48:07.170Z,24
2017-06-18T03:50:05.382Z,24
2017-06-18T03:52:05.278Z,24
2017-06-18T03:54:05.053Z,24
2017-06-18T03:56:04.825Z,24
2017-06-18T03:58:05.197Z,24
2017-06-18T04:00:09.932Z,24
2017-06-18T04:02:05.576Z,24
2017-06-18T04:04:05.538Z,24
2017-06-18T04:06:05.293Z,24
2017-06-18T04:08:05.136Z,24
2017-06-18T04:10:07.559Z,24
2017-06-18T04:12:07.743Z,24
2017-06-18T04:14:04.931Z,24
2017-06-18T04:16:05.777Z,24
2017-06-18T04:18:04.688Z,24
2017-06-18T04:20:05.404Z,24
2017-06-18T04:22:05.255Z,24.1
2017-06-18T04:24:04.944Z,24.1
2017-06-18T04:26:05.014Z,24.1
2017-06-18T04:28:04.893Z,24.1
2017-06-18T04:30:05.158Z,24.1
2017-06-18T04:32:07.377Z,24.1
2017-06-18T04:34:05.135Z,24.1
2017-06-18T04:36:07.423Z,24.2
2017-06-18T04:38:05.094Z,24.2
2017-06-18T04:40:12.469Z,24.2
2017-06-18T04:42:05.326Z,24.2
2017-06-18T04:44:05.021Z,24.2
2017-06-18T04:46:06.541Z,24.2
2017-06-18T04:48:10.083Z,24.2
2017-06-18T04:50:04.765Z,24.2
2017-06-18T04:52:05.756Z,24.2
2017-06-18T04:54:05.544Z,24.2
2017-06-18T04:56:07.296Z,24.2
2017-06-18T04:58:05.142Z,24.3
2017-06-18T05:00:07.510Z,24.3
2017-06-18T05:02:05.206Z,24.3
2017-06-18T05:04:04.982Z,24.3
2017-06-18T05:06:12.251Z,24.3
2017-06-18T05:08:04.984Z,24.3
2017-06-18T05:10:04.858Z,24.3
2017-06-18T05:12:05.533Z,24.4
2017-06-18T05:14:07.370Z,24.4
2017-06-18T05:16:05.465Z,24.4
2017-06-18T05:18:04.990Z,24.4
2017-06-18T05:20:09.697Z,24.4
2017-06-18T05:22:08.086Z,24.5
2017-06-18T05:24:04.786Z,24.5
2017-06-18T05:26:10.102Z,24.5
2017-06-18T05:28:12.507Z,24.5
2017-06-18T05:30:07.838Z,24.5
2017-06-18T05:32:05.540Z,24.5
2017-06-18T05:34:05.375Z,24.6
2017-06-18T05:36:07.185Z,24.6
2017-06-18T05:38:04.918Z,24.6
2017-06-18T05:40:05.445Z,24.6
2017-06-18T05:42:05.120Z,24.6
2017-06-18T05:44:07.395Z,24.7
2017-06-18T05:46:05.535Z,24.6
2017-06-18T05:48:05.226Z,24.7
2017-06-18T05:50:04.989Z,24.7
2017-06-18T05:52:07.385Z,24.7
2017-06-18T05:54:05.059Z,24.7
2017-06-18T05:56:04.748Z,24.8
2017-06-18T05:58:08.175Z,24.8
2017-06-18T06:00:04.962Z,24.8
2017-06-18T06:02:07.255Z,24.9
2017-06-18T06:04:05.665Z,24.8
2017-06-18T06:06:05.304Z,24.9
2017-06-18T06:08:04.973Z,24.9
2017-06-18T06:10:05.154Z,24.9
2017-06-18T06:12:04.898Z,24.9
2017-06-18T06:14:05.621Z,24.9
2017-06-18T06:16:07.422Z,25
2017-06-18T06:18:05.446Z,25
2017-06-18T06:20:05.299Z,25
2017-06-18T06:22:05.397Z,25
2017-06-18T06:24:07.601Z,25.1
2017-06-18T06:26:05.305Z,25.1
2017-06-18T06:28:05.204Z,25.1
2017-06-18T06:30:05.487Z,25.1
2017-06-18T06:32:05.173Z,25.1
2017-06-18T06:34:05.048Z,25.2
2017-06-18T06:36:05.250Z,25.2
2017-06-18T06:38:05.335Z,25.2
2017-06-18T06:40:05.062Z,25.2
2017-06-18T06:42:07.841Z,25.2
2017-06-18T06:44:05.077Z,25.2
2017-06-18T06:46:05.525Z,25.3
2017-06-18T06:48:05.257Z,25.3
2017-06-18T06:50:05.085Z,25.3
2017-06-18T06:52:15.371Z,25.3
2017-06-18T06:54:05.052Z,25.3
2017-06-18T06:56:04.771Z,25.3
2017-06-18T06:58:05.517Z,25.3
2017-06-18T07:00:07.723Z,25.4
2017-06-18T07:02:05.427Z,25.3
2017-06-18T07:04:05.113Z,25.3
2017-06-18T07:06:04.900Z,25.4
2017-06-18T07:08:07.726Z,25.4
2017-06-18T07:10:05.593Z,25.4
2017-06-18T07:12:05.288Z,25.4
2017-06-18T07:14:05.063Z,25.4
2017-06-18T07:16:04.918Z,25.5
2017-06-18T07:18:07.350Z,25.5
2017-06-18T07:20:05.021Z,25.5
2017-06-18T07:22:05.621Z,25.5
2017-06-18T07:24:05.286Z,25.5
2017-06-18T07:26:05.510Z,25.5
2017-06-18T07:28:05.423Z,25.5
2017-06-18T07:30:10.160Z,25.5
2017-06-18T07:32:07.463Z,25.5
2017-06-18T07:34:05.217Z,25.5
2017-06-18T07:36:04.925Z,25.5
2017-06-18T07:38:04.809Z,25.5
2017-06-18T07:40:05.645Z,25.5
2017-06-18T07:42:05.491Z,25.5
2017-06-18T07:44:05.276Z,25.5
2017-06-18T07:46:05.076Z,25.5
2017-06-18T07:48:04.837Z,25.5
2017-06-18T07:50:05.550Z,25.5
2017-06-18T07:52:05.311Z,25.5
2017-06-18T07:54:05.226Z,25.5
2017-06-18T07:56:04.900Z,25.5
2017-06-18T07:58:07.677Z,25.5
2017-06-18T08:00:05.372Z,25.5
2017-06-18T08:02:05.632Z,25.5
2017-06-18T08:04:05.049Z,25.5
2017-06-18T08:06:04.751Z,25.5
2017-06-18T08:08:05.509Z,25.6
2017-06-18T08:10:05.469Z,25.6
2017-06-18T08:12:05.164Z,25.6
2017-06-18T08:14:04.888Z,25.6
2017-06-18T08:16:05.766Z,25.6
2017-06-18T08:18:07.317Z,25.6
2017-06-18T08:20:07.575Z,25.6
2017-06-18T08:22:08.212Z,25.6
2017-06-18T08:24:07.423Z,25.6
2017-06-18T08:26:04.661Z,25.5
2017-06-18T08:28:04.983Z,25.5
2017-06-18T08:30:04.747Z,25.5
2017-06-18T08:32:05.488Z,25.6
2017-06-18T08:34:05.413Z,25.5
2017-06-18T08:36:04.635Z,25.5
2017-06-18T08:38:04.881Z,25.5
2017-06-18T08:40:05.747Z,25.5
2017-06-18T08:42:05.511Z,25.5
2017-06-18T08:44:05.254Z,25.5
2017-06-18T08:46:05.171Z,25.5
2017-06-18T08:48:07.956Z,25.5
2017-06-18T08:50:07.318Z,25.5
2017-06-18T08:52:07.701Z,25.5
2017-06-18T08:54:05.455Z,25.6
2017-06-18T08:56:05.227Z,25.6
2017-06-18T08:58:05.077Z,25.6
2017-06-18T09:00:04.744Z,25.6
2017-06-18T09:02:05.430Z,25.6
2017-06-18T09:04:04.832Z,25.6
2017-06-18T09:06:05.539Z,25.6
2017-06-18T09:08:05.309Z,25.6
2017-06-18T09:10:05.154Z,25.6
2017-06-18T09:12:07.440Z,25.6
2017-06-18T09:14:05.286Z,25.6
2017-06-18T09:16:05.163Z,25.6
2017-06-18T09:18:05.097Z,25.6
2017-06-18T09:20:04.838Z,25.7
2017-06-18T09:22:05.113Z,25.7
2017-06-18T09:24:04.926Z,25.7
2017-06-18T09:26:04.702Z,25.7
2017-06-18T09:28:08.194Z,25.7
2017-06-18T09:30:10.347Z,25.6
2017-06-18T09:32:05.046Z,25.6
2017-06-18T09:34:04.965Z,25.6
2017-06-18T09:36:04.762Z,25.6
2017-06-18T09:38:05.082Z,25.6
2017-06-18T09:40:04.956Z,25.6
2017-06-18T09:42:04.817Z,25.6
2017-06-18T09:44:08.022Z,25.6
2017-06-18T09:46:07.749Z,25.6
2017-06-18T09:48:05.439Z,25.6
2017-06-18T09:50:04.696Z,25.6
2017-06-18T09:52:05.573Z,25.6
2017-06-18T09:54:05.333Z,25.6
2017-06-18T09:56:05.672Z,25.6
2017-06-18T09:58:04.971Z,25.6
2017-06-18T10:00:04.780Z,25.6
2017-06-18T10:02:05.585Z,25.6
2017-06-18T10:04:05.726Z,25.6
2017-06-18T10:06:05.498Z,25.6
2017-06-18T10:08:04.823Z,25.6
2017-06-18T10:10:08.097Z,25.6
2017-06-18T10:12:17.648Z,25.6
2017-06-18T10:14:05.374Z,25.6
2017-06-18T10:16:05.604Z,25.6
2017-06-18T10:18:05.238Z,25.6
2017-06-18T10:20:05.032Z,25.6
2017-06-18T10:22:07.535Z,25.7
2017-06-18T10:24:05.224Z,25.6
2017-06-18T10:26:04.956Z,25.6
2017-06-18T10:28:04.888Z,25.6
2017-06-18T10:30:05.690Z,25.6
2017-06-18T10:32:08.093Z,25.6
2017-06-18T10:34:13.003Z,25.6
2017-06-18T10:36:04.693Z,25.6
2017-06-18T10:38:05.350Z,25.6
2017-06-18T10:40:06.750Z,25.6
2017-06-18T10:42:05.449Z,25.6
2017-06-18T10:44:05.154Z,25.6
2017-06-18T10:46:07.529Z,25.6
2017-06-18T10:48:10.244Z,25.6
2017-06-18T10:50:07.818Z,25.6
2017-06-18T10:52:05.580Z,25.6
2017-06-18T10:54:10.556Z,25.7
2017-06-18T10:56:05.274Z,25.6
2017-06-18T10:58:04.958Z,25.7
2017-06-18T11:00:04.616Z,25.6
2017-06-18T11:02:05.268Z,25.6
2017-06-18T11:04:05.148Z,25.7
2017-06-18T11:06:07.395Z,25.6
2017-06-18T11:08:05.041Z,25.6
2017-06-18T11:10:07.329Z,25.7
2017-06-18T11:12:07.636Z,25.7
2017-06-18T11:14:04.900Z,25.7
2017-06-18T11:16:05.829Z,25.7
2017-06-18T11:18:07.269Z,25.7
2017-06-18T11:20:13.108Z,25.7
2017-06-18T11:22:05.107Z,25.7
2017-06-18T11:24:04.866Z,25.8
2017-06-18T11:26:05.082Z,25.8
2017-06-18T11:28:05.160Z,25.8
2017-06-18T11:30:04.873Z,25.8
2017-06-18T11:32:05.634Z,25.8
2017-06-18T11:34:04.949Z,25.8
2017-06-18T11:36:04.878Z,25.7
2017-06-18T11:38:05.547Z,25.7
2017-06-18T11:40:05.351Z,25.7
2017-06-18T11:42:07.682Z,25.8
2017-06-18T11:44:05.349Z,25.8
2017-06-18T11:46:08.103Z,25.9
2017-06-18T11:48:05.322Z,25.9
2017-06-18T11:50:05.159Z,25.9
2017-06-18T11:52:05.023Z,26
2017-06-18T11:54:04.872Z,26
2017-06-18T11:56:08.093Z,25.9
2017-06-18T11:58:04.894Z,25.9
2017-06-18T12:00:05.145Z,25.9
2017-06-18T12:02:05.365Z,25.9
2017-06-18T12:04:05.231Z,25.9
2017-06-18T12:06:04.940Z,26
2017-06-18T12:08:04.626Z,26
2017-06-18T12:10:05.471Z,26
2017-06-18T12:12:05.154Z,26
2017-06-18T12:14:05.452Z,26
2017-06-18T12:16:05.557Z,26.1
2017-06-18T12:18:05.463Z,26
2017-06-18T12:20:05.172Z,26
2017-06-18T12:22:05.389Z,25.9
2017-06-18T12:24:06.056Z,25.9
2017-06-18T12:26:07.931Z,25.9
2017-06-18T12:28:09.771Z,25.9
2017-06-18T12:30:10.566Z,25.9
2017-06-18T12:32:05.297Z,25.8
2017-06-18T12:34:05.023Z,25.8
2017-06-18T12:36:05.295Z,25.9
2017-06-18T12:38:05.543Z,25.9
2017-06-18T12:40:05.247Z,25.9
2017-06-18T12:42:13.161Z,25.8
2017-06-18T12:44:04.865Z,25.8
2017-06-18T12:46:10.153Z,25.9
2017-06-18T12:48:07.370Z,25.9
2017-06-18T12:50:07.597Z,25.9
2017-06-18T12:52:05.429Z,25.8
2017-06-18T12:54:05.138Z,25.8
2017-06-18T12:56:04.910Z,25.8
2017-06-18T12:58:04.783Z,25.9
2017-06-18T13:00:05.494Z,25.8
2017-06-18T13:02:05.209Z,25.8
2017-06-18T13:04:04.864Z,25.9
2017-06-18T13:06:05.562Z,25.8
2017-06-18T13:08:07.778Z,25.8
2017-06-18T13:10:08.069Z,25.9
2017-06-18T13:12:07.331Z,25.9
2017-06-18T13:14:05.880Z,25.9
2017-06-18T13:16:05.469Z,25.9
2017-06-18T13:18:07.512Z,25.9
2017-06-18T13:20:05.247Z,25.9
2017-06-18T13:22:05.158Z,25.9
2017-06-18T13:24:07.485Z,25.9
2017-06-18T13:26:05.244Z,25.9
2017-06-18T13:28:07.516Z,25.9
2017-06-18T13:30:05.351Z,25.9
2017-06-18T13:32:05.095Z,26
2017-06-18T13:34:04.907Z,25.9
2017-06-18T13:36:04.806Z,25.9
2017-06-18T13:38:04.698Z,25.9
2017-06-18T13:40:04.640Z,25.9
2017-06-18T13:42:05.373Z,25.9
2017-06-18T13:44:06.035Z,25.9
2017-06-18T13:46:05.315Z,25.9
2017-06-18T13:48:05.016Z,26
2017-06-18T13:50:04.765Z,25.9
2017-06-18T13:52:05.521Z,25.9
2017-06-18T13:54:05.238Z,25.9
2017-06-18T13:56:05.939Z,25.8
2017-06-18T13:58:05.082Z,25.9
2017-06-18T14:00:05.114Z,25.8
2017-06-18T14:02:04.929Z,25.8
2017-06-18T14:04:08.176Z,25.8
2017-06-18T14:06:04.932Z,25.8
2017-06-18T14:08:05.135Z,25.8
2017-06-18T14:10:05.072Z,25.8
2017-06-18T14:12:04.906Z,25.8
2017-06-18T14:14:04.624Z,25.8
2017-06-18T14:16:07.944Z,25.8
2017-06-18T14:18:04.877Z,25.8
2017-06-18T14:20:05.546Z,25.8
2017-06-18T14:22:05.279Z,25.9
2017-06-18T14:24:05.044Z,25.8
2017-06-18T14:26:05.271Z,25.8
2017-06-18T14:28:05.023Z,25.8
2017-06-18T14:30:05.099Z,25.8
2017-06-18T14:32:05.002Z,25.9
2017-06-18T14:34:04.777Z,25.8
2017-06-18T14:36:05.566Z,25.8
2017-06-18T14:38:05.479Z,25.8
2017-06-18T14:40:05.151Z,25.8
2017-06-18T14:42:05.079Z,25.8
2017-06-18T14:44:10.405Z,25.8
2017-06-18T14:46:05.126Z,25.9
2017-06-18T14:48:05.353Z,25.9
2017-06-18T14:50:05.191Z,25.9
2017-06-18T14:52:15.149Z,25.9
2017-06-18T14:54:05.411Z,25.9
2017-06-18T14:56:05.190Z,25.9
2017-06-18T14:58:07.539Z,25.9
2017-06-18T15:00:05.735Z,25.9
2017-06-18T15:02:07.664Z,25.9
2017-06-18T15:04:05.447Z,25.9
2017-06-18T15:06:05.214Z,25.9
2017-06-18T15:08:04.949Z,25.9
2017-06-18T15:10:04.635Z,25.8
2017-06-18T15:12:07.549Z,25.9
2017-06-18T15:14:05.377Z,25.9
2017-06-18T15:16:05.126Z,25.8
2017-06-18T15:18:07.539Z,25.9
2017-06-18T15:20:05.323Z,25.8
2017-06-18T15:22:06.246Z,25.8
2017-06-18T15:24:07.420Z,25.9
2017-06-18T15:26:09.669Z,25.9
2017-06-18T15:28:07.937Z,25.9
2017-06-18T15:30:04.633Z,25.9
2017-06-18T15:32:04.854Z,25.9
2017-06-18T15:34:05.586Z,25.9
2017-06-18T15:36:05.404Z,25.9
2017-06-18T15:38:10.381Z,25.9
2017-06-18T15:40:05.286Z,25.9
2017-06-18T15:42:07.791Z,25.9
2017-06-18T15:44:04.762Z,25.9
2017-06-18T15:46:05.611Z,25.9
2017-06-18T15:48:08.127Z,25.9
2017-06-18T15:50:04.947Z,25.9
2017-06-18T15:52:05.146Z,25.9
2017-06-18T15:54:20.345Z,25.9
2017-06-18T15:56:05.610Z,25.9
2017-06-18T15:58:05.365Z,25.9
2017-06-18T16:00:05.059Z,25.9
2017-06-18T16:02:05.012Z,25.9
2017-06-18T16:04:04.752Z,25.9
2017-06-18T16:06:05.404Z,25.9
2017-06-18T16:08:05.210Z,25.9
2017-06-18T16:10:04.919Z,25.9
2017-06-18T16:12:05.589Z,26
2017-06-18T16:14:05.880Z,26
2017-06-18T16:16:07.642Z,25.9
2017-06-18T16:18:05.566Z,26
2017-06-18T16:20:05.347Z,26
2017-06-18T16:22:07.579Z,25.9
2017-06-18T16:24:05.272Z,25.9
2017-06-18T16:26:05.160Z,25.9
2017-06-18T16:28:04.811Z,25.9
2017-06-18T16:30:08.052Z,25.9
2017-06-18T16:32:04.893Z,25.9
2017-06-18T16:34:05.627Z,26
2017-06-18T16:36:05.342Z,26
2017-06-18T16:38:05.906Z,26
2017-06-18T16:40:05.163Z,26
2017-06-18T16:42:07.591Z,26
2017-06-18T16:44:05.011Z,26
2017-06-18T16:46:07.270Z,26
2017-06-18T16:48:04.936Z,26
2017-06-18T16:50:04.619Z,26
2017-06-18T16:52:05.328Z,26.1
2017-06-18T16:54:10.132Z,26.1
2017-06-18T16:56:05.541Z,26.1
2017-06-18T16:58:05.699Z,26.1
2017-06-18T17:00:05.456Z,26.1
2017-06-18T17:02:05.349Z,26
2017-06-18T17:04:05.100Z,26
2017-06-18T17:06:07.325Z,26
2017-06-18T17:08:05.651Z,26
2017-06-18T17:10:07.947Z,26
2017-06-18T17:12:08.159Z,26
2017-06-18T17:14:05.977Z,26
2017-06-18T17:16:07.322Z,26.1
2017-06-18T17:18:07.345Z,26.1
2017-06-18T17:20:05.173Z,26.1
2017-06-18T17:22:05.130Z,26
2017-06-18T17:24:04.840Z,26
2017-06-18T17:26:05.605Z,26
2017-06-18T17:28:05.386Z,26
2017-06-18T17:30:05.945Z,26
2017-06-18T17:32:07.196Z,25.9
2017-06-18T17:34:07.630Z,25.9
2017-06-18T17:36:05.373Z,25.9
2017-06-18T17:38:05.054Z,26
2017-06-18T17:40:04.778Z,25.9
2017-06-18T17:42:05.502Z,26
2017-06-18T17:44:05.423Z,26
2017-06-18T17:46:04.997Z,26
2017-06-18T17:48:09.720Z,26
2017-06-18T17:50:05.465Z,26
2017-06-18T17:52:05.163Z,26
2017-06-18T17:54:04.899Z,26
2017-06-18T17:56:05.140Z,26
2017-06-18T17:58:04.863Z,26
2017-06-18T18:00:08.090Z,26
2017-06-18T18:02:05.685Z,26
2017-06-18T18:04:05.406Z,26
2017-06-18T18:06:05.529Z,26
2017-06-18T18:08:05.484Z,26
2017-06-18T18:10:05.200Z,26
2017-06-18T18:12:05.384Z,26
2017-06-18T18:14:07.816Z,26
2017-06-18T18:16:05.558Z,26
2017-06-18T18:18:08.160Z,26.1
2017-06-18T18:20:05.756Z,26.1
2017-06-18T18:22:05.465Z,26.1
2017-06-18T18:24:05.205Z,26.1
2017-06-18T18:26:05.060Z,26.1
2017-06-18T18:28:08.077Z,26
2017-06-18T18:30:04.815Z,26
2017-06-18T18:32:05.525Z,26.1
2017-06-18T18:34:17.981Z,26
2017-06-18T18:36:14.872Z,26
2017-06-18T18:38:05.595Z,26
2017-06-18T18:40:05.313Z,26.1
2017-06-18T18:42:04.711Z,26.1
2017-06-18T18:44:05.466Z,26
2017-06-18T18:46:07.724Z,26
2017-06-18T18:48:05.577Z,26
2017-06-18T18:50:05.452Z,26
2017-06-18T18:52:04.868Z,26
2017-06-18T18:54:04.626Z,26
2017-06-18T18:56:04.989Z,26
2017-06-18T18:58:04.687Z,26
2017-06-18T19:00:04.875Z,26
2017-06-18T19:02:05.610Z,26
2017-06-18T19:04:05.292Z,26
2017-06-18T19:06:04.956Z,26
2017-06-18T19:08:04.657Z,26
2017-06-18T19:10:05.386Z,26
2017-06-18T19:12:05.088Z,26
2017-06-18T19:14:04.859Z,26
2017-06-18T19:16:04.646Z,26
2017-06-18T19:18:05.534Z,25.9
2017-06-18T19:20:05.602Z,26.1
2017-06-18T19:22:07.551Z,26.1
2017-06-18T19:24:09.905Z,26
2017-06-18T19:26:05.594Z,26
2017-06-18T19:28:05.316Z,26.1
2017-06-18T19:30:05.239Z,26.1
2017-06-18T19:32:05.114Z,26.1
2017-06-18T19:34:07.620Z,26.1
2017-06-18T19:36:10.131Z,26.1
2017-06-18T19:38:10.120Z,26.1
2017-06-18T19:40:04.904Z,26.1
2017-06-18T19:42:05.175Z,26.1
2017-06-18T19:44:05.092Z,26.1
2017-06-18T19:46:09.927Z,26.1
2017-06-18T19:48:04.690Z,26.1
2017-06-18T19:50:05.374Z,26.1
2017-06-18T19:52:05.605Z,26.1
2017-06-18T19:54:05.343Z,26.1
2017-06-18T19:56:05.141Z,26
2017-06-18T19:58:09.965Z,26
2017-06-18T20:00:07.240Z,26
2017-06-18T20:02:07.765Z,26
2017-06-18T20:04:05.499Z,26
2017-06-18T20:06:05.292Z,26
2017-06-18T20:08:04.989Z,26
2017-06-18T20:10:17.448Z,26
2017-06-18T20:12:05.202Z,26
2017-06-18T20:14:04.935Z,26
2017-06-18T20:16:04.712Z,26
2017-06-18T20:18:05.190Z,26
2017-06-18T20:20:17.936Z,26
2017-06-18T20:22:07.220Z,26
2017-06-18T20:24:12.548Z,26
2017-06-18T20:26:08.022Z,26
2017-06-18T20:28:07.334Z,26
2017-06-18T20:30:04.992Z,26
2017-06-18T20:32:04.897Z,26
2017-06-18T20:34:07.126Z,25.9
2017-06-18T20:36:17.465Z,25.8
2017-06-18T20:38:05.040Z,25.9
2017-06-18T20:40:04.980Z,25.8
2017-06-18T20:42:05.032Z,25.8
2017-06-18T20:44:09.889Z,25.8
2017-06-18T20:46:05.640Z,25.8
2017-06-18T20:48:05.501Z,25.9
2017-06-18T20:50:05.445Z,25.9
2017-06-18T20:52:07.774Z,25.8
2017-06-18T20:54:05.554Z,25.8
2017-06-18T20:56:05.373Z,25.7
2017-06-18T20:58:05.773Z,25.7
2017-06-18T21:00:05.446Z,25.7
2017-06-18T21:02:05.268Z,25.7
2017-06-18T21:04:05.539Z,25.7
2017-06-18T21:06:05.227Z,25.7
2017-06-18T21:08:05.079Z,25.7
2017-06-18T21:10:06.054Z,25.7
2017-06-18T21:12:05.410Z,25.7
2017-06-18T21:14:10.175Z,25.7
2017-06-18T21:16:05.007Z,25.7
2017-06-18T21:18:04.993Z,25.7
2017-06-18T21:20:07.582Z,25.6
2017-06-18T21:22:07.444Z,25.6
2017-06-18T21:24:05.153Z,25.7
2017-06-18T21:26:05.287Z,25.7
2017-06-18T21:28:07.536Z,25.7
2017-06-18T21:30:05.374Z,25.6
2017-06-18T21:32:08.307Z,25.6
2017-06-18T21:34:05.076Z,25.6
2017-06-18T21:36:04.785Z,25.7
2017-06-18T21:38:05.547Z,25.6
2017-06-18T21:40:04.791Z,25.7
2017-06-18T21:42:08.035Z,25.7
2017-06-18T21:44:04.752Z,25.7
2017-06-18T21:46:05.429Z,25.7
2017-06-18T21:48:04.650Z,25.7
2017-06-18T21:50:04.908Z,25.6
2017-06-18T21:52:04.665Z,25.7
2017-06-18T21:54:05.312Z,25.6
2017-06-18T21:56:13.490Z,25.6
2017-06-18T21:58:05.262Z,25.6
2017-06-18T22:00:05.128Z,25.6
2017-06-18T22:02:05.205Z,25.7
2017-06-18T22:04:05.406Z,25.7
2017-06-18T22:06:05.092Z,25.6
2017-06-18T22:08:04.987Z,25.7
2017-06-18T22:10:04.659Z,25.6
2017-06-18T22:12:05.342Z,25.7
2017-06-18T22:14:05.130Z,25.7
2017-06-18T22:16:04.787Z,25.7
2017-06-18T22:18:04.736Z,25.7
2017-06-18T22:20:05.833Z,25.6
2017-06-18T22:22:05.553Z,25.7
2017-06-18T22:24:04.756Z,25.6
2017-06-18T22:26:05.591Z,25.7
2017-06-18T22:28:07.799Z,25.6
2017-06-18T22:30:13.078Z,25.6
2017-06-18T22:32:09.878Z,25.6
2017-06-18T22:34:05.628Z,25.6
2017-06-18T22:36:05.315Z,25.6
2017-06-18T22:38:05.064Z,25.6
2017-06-18T22:40:04.836Z,25.6
2017-06-18T22:42:05.525Z,25.6
2017-06-18T22:44:05.269Z,25.6
2017-06-18T22:46:10.099Z,25.6
2017-06-18T22:48:07.320Z,25.6
2017-06-18T22:50:05.069Z,25.6
2017-06-18T22:52:07.316Z,25.6
2017-06-18T22:54:05.173Z,25.6
2017-06-18T22:56:05.149Z,25.6
2017-06-18T22:58:07.410Z,25.6
2017-06-18T23:00:05.200Z,25.6
2017-06-18T23:02:07.570Z,25.6
2017-06-18T23:04:05.285Z,25.6
2017-06-18T23:06:07.604Z,25.7
2017-06-18T23:08:05.391Z,25.6
2017-06-18T23:10:05.072Z,25.6
2017-06-18T23:12:04.782Z,25.6
2017-06-18T23:14:05.622Z,25.6
2017-06-18T23:16:04.845Z,25.6
2017-06-18T23:18:04.763Z,25.6
2017-06-18T23:20:05.596Z,25.6
2017-06-18T23:22:12.486Z,25.6
2017-06-18T23:24:05.233Z,25.6
2017-06-18T23:26:05.021Z,25.6
2017-06-18T23:28:04.703Z,25.6
2017-06-18T23:30:04.921Z,25.6
2017-06-18T23:32:08.191Z,25.6
2017-06-18T23:34:04.899Z,25.6
2017-06-18T23:36:05.544Z,25.6
2017-06-18T23:38:05.395Z,25.6
2017-06-18T23:40:05.571Z,25.6
2017-06-18T23:42:05.355Z,25.6
2017-06-18T23:44:07.828Z,25.6
2017-06-18T23:46:05.556Z,25.6
2017-06-18T23:48:04.771Z,25.6
2017-06-18T23:50:05.849Z,25.6
2017-06-18T23:52:05.566Z,25.6
2017-06-18T23:54:05.326Z,25.6
2017-06-18T23:56:05.687Z,25.7
2017-06-18T23:58:05.352Z,25.7
